sensor_id;sensor_type;location;lat;lon;timestamp;P1;durP1;ratioP1;P2;durP2;ratioP2
69083;SDS011;56185;48.526;9.044;2022-07-18T00:02:13;3.30;;;2.13;;
69083;SDS011;56185;48.526;9.044;2022-07-18T00:04:38;3.60;;;2.30;;
69083;SDS011;56185;48.526;9.044;2022-07-18T00:07:04;4.10;;;2.25;;
69083;SDS011;56185;48.526;9.044;2022-07-18T00:09:29;2.63;;;2.20;;
69083;SDS011;56185;48.526;9.044;2022-07-18T00:11:55;3.90;;;2.05;;
69083;SDS011;56185;48.526;9.044;2022-07-18T00:14:20;4.75;;;2.50;;
69083;SDS011;56185;48.526;9.044;2022-07-18T00:16:46;4.20;;;1.73;;
69083;SDS011;56185;48.526;9.044;2022-07-18T00:19:12;3.80;;;2.55;;
69083;SDS011;56185;48.526;9.044;2022-07-18T00:21:38;4.00;;;2.30;;
69083;SDS011;56185;48.526;9.044;2022-07-18T00:24:03;4.95;;;2.10;;
69083;SDS011;56185;48.526;9.044;2022-07-18T00:26:28;4.90;;;2.25;;
69083;SDS011;56185;48.526;9.044;2022-07-18T00:28:54;3.15;;;1.90;;
69083;SDS011;56185;48.526;9.044;2022-07-18T00:31:19;3.67;;;2.10;;
69083;SDS011;56185;48.526;9.044;2022-07-18T00:33:44;4.70;;;2.22;;
69083;SDS011;56185;48.526;9.044;2022-07-18T00:36:10;2.67;;;2.10;;
69083;SDS011;56185;48.526;9.044;2022-07-18T00:38:35;2.80;;;2.30;;
69083;SDS011;56185;48.526;9.044;2022-07-18T00:41:01;3.83;;;2.15;;
69083;SDS011;56185;48.526;9.044;2022-07-18T00:43:26;3.05;;;2.20;;
69083;SDS011;56185;48.526;9.044;2022-07-18T00:45:52;2.40;;;2.00;;
69083;SDS011;56185;48.526;9.044;2022-07-18T00:48:17;3.50;;;2.20;;
69083;SDS011;56185;48.526;9.044;2022-07-18T00:50:43;3.27;;;2.00;;
69083;SDS011;56185;48.526;9.044;2022-07-18T00:53:08;4.40;;;2.30;;
69083;SDS011;56185;48.526;9.044;2022-07-18T00:55:34;4.63;;;2.03;;
69083;SDS011;56185;48.526;9.044;2022-07-18T00:58:03;3.97;;;2.10;;
69083;SDS011;56185;48.526;9.044;2022-07-18T01:00:28;2.95;;;2.30;;
69083;SDS011;56185;48.526;9.044;2022-07-18T01:02:54;3.15;;;2.05;;
69083;SDS011;56185;48.526;9.044;2022-07-18T01:05:19;2.78;;;1.88;;
69083;SDS011;56185;48.526;9.044;2022-07-18T01:07:45;3.22;;;2.28;;
69083;SDS011;56185;48.526;9.044;2022-07-18T01:10:10;2.53;;;1.90;;
69083;SDS011;56185;48.526;9.044;2022-07-18T01:12:35;2.83;;;1.83;;
69083;SDS011;56185;48.526;9.044;2022-07-18T01:15:02;4.80;;;2.15;;
69083;SDS011;56185;48.526;9.044;2022-07-18T01:17:28;2.85;;;2.00;;
69083;SDS011;56185;48.526;9.044;2022-07-18T01:19:53;4.22;;;2.10;;
69083;SDS011;56185;48.526;9.044;2022-07-18T01:22:19;3.80;;;2.37;;
69083;SDS011;56185;48.526;9.044;2022-07-18T01:24:45;4.43;;;2.22;;
69083;SDS011;56185;48.526;9.044;2022-07-18T01:27:14;2.38;;;1.98;;
69083;SDS011;56185;48.526;9.044;2022-07-18T01:29:45;3.10;;;2.00;;
69083;SDS011;56185;48.526;9.044;2022-07-18T01:32:12;3.42;;;2.03;;
69083;SDS011;56185;48.526;9.044;2022-07-18T01:34:38;2.63;;;2.20;;
69083;SDS011;56185;48.526;9.044;2022-07-18T01:37:04;3.50;;;2.05;;
69083;SDS011;56185;48.526;9.044;2022-07-18T01:39:30;2.58;;;1.95;;
69083;SDS011;56185;48.526;9.044;2022-07-18T01:44:22;4.43;;;2.00;;
69083;SDS011;56185;48.526;9.044;2022-07-18T01:46:47;2.92;;;2.08;;
69083;SDS011;56185;48.526;9.044;2022-07-18T01:49:13;3.63;;;2.10;;
69083;SDS011;56185;48.526;9.044;2022-07-18T01:51:38;3.47;;;2.20;;
69083;SDS011;56185;48.526;9.044;2022-07-18T01:54:03;4.77;;;2.37;;
69083;SDS011;56185;48.526;9.044;2022-07-18T01:56:28;2.40;;;2.00;;
69083;SDS011;56185;48.526;9.044;2022-07-18T01:58:54;4.03;;;2.17;;
69083;SDS011;56185;48.526;9.044;2022-07-18T02:01:19;2.78;;;2.10;;
69083;SDS011;56185;48.526;9.044;2022-07-18T02:03:44;3.45;;;2.08;;
69083;SDS011;56185;48.526;9.044;2022-07-18T02:06:10;3.38;;;2.00;;
69083;SDS011;56185;48.526;9.044;2022-07-18T02:08:35;3.35;;;1.80;;
69083;SDS011;56185;48.526;9.044;2022-07-18T02:11:00;2.43;;;1.93;;
69083;SDS011;56185;48.526;9.044;2022-07-18T02:13:25;5.57;;;1.90;;
69083;SDS011;56185;48.526;9.044;2022-07-18T02:15:51;3.00;;;2.00;;
69083;SDS011;56185;48.526;9.044;2022-07-18T02:18:16;2.47;;;1.83;;
69083;SDS011;56185;48.526;9.044;2022-07-18T02:20:42;2.75;;;2.00;;
69083;SDS011;56185;48.526;9.044;2022-07-18T02:23:07;4.88;;;2.28;;
69083;SDS011;56185;48.526;9.044;2022-07-18T02:25:32;4.40;;;2.08;;
69083;SDS011;56185;48.526;9.044;2022-07-18T02:27:58;5.07;;;2.42;;
69083;SDS011;56185;48.526;9.044;2022-07-18T02:30:23;5.30;;;2.13;;
69083;SDS011;56185;48.526;9.044;2022-07-18T02:32:48;4.38;;;1.77;;
69083;SDS011;56185;48.526;9.044;2022-07-18T02:35:14;2.88;;;2.20;;
69083;SDS011;56185;48.526;9.044;2022-07-18T02:37:39;2.25;;;1.90;;
69083;SDS011;56185;48.526;9.044;2022-07-18T02:40:06;2.95;;;2.38;;
69083;SDS011;56185;48.526;9.044;2022-07-18T02:42:32;3.28;;;2.47;;
69083;SDS011;56185;48.526;9.044;2022-07-18T02:44:58;4.45;;;1.92;;
69083;SDS011;56185;48.526;9.044;2022-07-18T02:47:23;3.53;;;2.60;;
69083;SDS011;56185;48.526;9.044;2022-07-18T02:49:48;2.97;;;2.50;;
69083;SDS011;56185;48.526;9.044;2022-07-18T02:52:13;4.57;;;2.35;;
69083;SDS011;56185;48.526;9.044;2022-07-18T02:54:39;4.33;;;2.20;;
69083;SDS011;56185;48.526;9.044;2022-07-18T02:57:04;2.70;;;2.30;;
69083;SDS011;56185;48.526;9.044;2022-07-18T02:59:29;4.38;;;2.17;;
69083;SDS011;56185;48.526;9.044;2022-07-18T03:01:55;4.68;;;2.30;;
69083;SDS011;56185;48.526;9.044;2022-07-18T03:04:21;5.55;;;2.40;;
69083;SDS011;56185;48.526;9.044;2022-07-18T03:06:47;3.65;;;2.47;;
69083;SDS011;56185;48.526;9.044;2022-07-18T03:09:14;3.72;;;2.25;;
69083;SDS011;56185;48.526;9.044;2022-07-18T03:11:40;3.53;;;2.30;;
69083;SDS011;56185;48.526;9.044;2022-07-18T03:14:05;4.80;;;2.38;;
69083;SDS011;56185;48.526;9.044;2022-07-18T03:16:31;2.90;;;2.20;;
69083;SDS011;56185;48.526;9.044;2022-07-18T03:18:56;3.25;;;2.20;;
69083;SDS011;56185;48.526;9.044;2022-07-18T03:21:21;4.47;;;2.40;;
69083;SDS011;56185;48.526;9.044;2022-07-18T03:23:47;4.18;;;2.10;;
69083;SDS011;56185;48.526;9.044;2022-07-18T03:26:12;2.75;;;2.17;;
69083;SDS011;56185;48.526;9.044;2022-07-18T03:28:37;3.53;;;2.35;;
69083;SDS011;56185;48.526;9.044;2022-07-18T03:31:03;2.67;;;2.13;;
69083;SDS011;56185;48.526;9.044;2022-07-18T03:33:28;2.85;;;2.30;;
69083;SDS011;56185;48.526;9.044;2022-07-18T03:35:53;5.93;;;2.20;;
69083;SDS011;56185;48.526;9.044;2022-07-18T03:38:18;3.67;;;2.10;;
69083;SDS011;56185;48.526;9.044;2022-07-18T03:40:44;4.17;;;2.40;;
69083;SDS011;56185;48.526;9.044;2022-07-18T03:43:09;3.90;;;2.40;;
69083;SDS011;56185;48.526;9.044;2022-07-18T03:45:34;5.35;;;2.30;;
69083;SDS011;56185;48.526;9.044;2022-07-18T03:48:00;2.92;;;2.40;;
69083;SDS011;56185;48.526;9.044;2022-07-18T03:50:25;5.97;;;2.53;;
69083;SDS011;56185;48.526;9.044;2022-07-18T03:52:50;3.05;;;2.28;;
69083;SDS011;56185;48.526;9.044;2022-07-18T03:55:16;4.13;;;2.38;;
69083;SDS011;56185;48.526;9.044;2022-07-18T03:57:41;4.20;;;2.67;;
69083;SDS011;56185;48.526;9.044;2022-07-18T04:00:07;6.60;;;2.58;;
69083;SDS011;56185;48.526;9.044;2022-07-18T04:02:32;3.72;;;2.40;;
69083;SDS011;56185;48.526;9.044;2022-07-18T04:04:57;4.30;;;2.37;;
69083;SDS011;56185;48.526;9.044;2022-07-18T04:07:23;3.20;;;2.60;;
69083;SDS011;56185;48.526;9.044;2022-07-18T04:09:48;3.30;;;2.60;;
69083;SDS011;56185;48.526;9.044;2022-07-18T04:12:13;3.35;;;2.60;;
69083;SDS011;56185;48.526;9.044;2022-07-18T04:14:38;3.97;;;2.70;;
69083;SDS011;56185;48.526;9.044;2022-07-18T04:17:04;4.60;;;2.60;;
69083;SDS011;56185;48.526;9.044;2022-07-18T04:19:29;5.65;;;2.75;;
69083;SDS011;56185;48.526;9.044;2022-07-18T04:21:54;4.10;;;2.77;;
69083;SDS011;56185;48.526;9.044;2022-07-18T04:24:19;5.32;;;2.83;;
69083;SDS011;56185;48.526;9.044;2022-07-18T04:26:45;5.53;;;2.40;;
69083;SDS011;56185;48.526;9.044;2022-07-18T04:29:10;5.97;;;2.60;;
69083;SDS011;56185;48.526;9.044;2022-07-18T04:31:35;5.17;;;2.67;;
69083;SDS011;56185;48.526;9.044;2022-07-18T04:34:00;4.70;;;2.55;;
69083;SDS011;56185;48.526;9.044;2022-07-18T04:36:26;6.22;;;2.50;;
69083;SDS011;56185;48.526;9.044;2022-07-18T04:38:51;6.50;;;2.70;;
69083;SDS011;56185;48.526;9.044;2022-07-18T04:41:17;5.83;;;2.60;;
69083;SDS011;56185;48.526;9.044;2022-07-18T04:43:42;3.88;;;2.58;;
69083;SDS011;56185;48.526;9.044;2022-07-18T04:46:07;5.00;;;2.50;;
69083;SDS011;56185;48.526;9.044;2022-07-18T04:48:33;3.60;;;2.50;;
69083;SDS011;56185;48.526;9.044;2022-07-18T04:50:58;5.35;;;2.55;;
69083;SDS011;56185;48.526;9.044;2022-07-18T04:53:23;9.20;;;2.60;;
69083;SDS011;56185;48.526;9.044;2022-07-18T04:55:48;4.83;;;2.40;;
69083;SDS011;56185;48.526;9.044;2022-07-18T04:58:14;5.18;;;2.67;;
69083;SDS011;56185;48.526;9.044;2022-07-18T05:00:39;2.97;;;2.60;;
69083;SDS011;56185;48.526;9.044;2022-07-18T05:03:04;5.82;;;2.70;;
69083;SDS011;56185;48.526;9.044;2022-07-18T05:05:30;3.92;;;2.50;;
69083;SDS011;56185;48.526;9.044;2022-07-18T05:07:55;5.88;;;2.92;;
69083;SDS011;56185;48.526;9.044;2022-07-18T05:10:21;4.53;;;2.55;;
69083;SDS011;56185;48.526;9.044;2022-07-18T05:12:48;7.43;;;3.00;;
69083;SDS011;56185;48.526;9.044;2022-07-18T05:15:16;4.85;;;2.80;;
69083;SDS011;56185;48.526;9.044;2022-07-18T05:17:42;4.53;;;3.22;;
69083;SDS011;56185;48.526;9.044;2022-07-18T05:20:10;5.63;;;2.92;;
69083;SDS011;56185;48.526;9.044;2022-07-18T05:22:36;4.38;;;3.10;;
69083;SDS011;56185;48.526;9.044;2022-07-18T05:25:03;5.00;;;3.00;;
69083;SDS011;56185;48.526;9.044;2022-07-18T05:27:29;5.82;;;3.17;;
69083;SDS011;56185;48.526;9.044;2022-07-18T05:29:54;5.88;;;2.92;;
69083;SDS011;56185;48.526;9.044;2022-07-18T05:32:20;4.28;;;2.88;;
69083;SDS011;56185;48.526;9.044;2022-07-18T05:34:45;4.97;;;2.90;;
69083;SDS011;56185;48.526;9.044;2022-07-18T05:37:10;3.90;;;2.78;;
69083;SDS011;56185;48.526;9.044;2022-07-18T05:39:36;4.55;;;2.75;;
69083;SDS011;56185;48.526;9.044;2022-07-18T05:42:01;3.40;;;2.70;;
69083;SDS011;56185;48.526;9.044;2022-07-18T05:44:27;4.55;;;2.63;;
69083;SDS011;56185;48.526;9.044;2022-07-18T05:46:53;4.90;;;2.80;;
69083;SDS011;56185;48.526;9.044;2022-07-18T05:49:18;4.60;;;3.03;;
69083;SDS011;56185;48.526;9.044;2022-07-18T05:51:44;6.17;;;3.40;;
69083;SDS011;56185;48.526;9.044;2022-07-18T05:54:09;4.35;;;3.20;;
69083;SDS011;56185;48.526;9.044;2022-07-18T05:56:34;6.97;;;3.17;;
69083;SDS011;56185;48.526;9.044;2022-07-18T05:58:59;5.28;;;2.72;;
69083;SDS011;56185;48.526;9.044;2022-07-18T06:01:25;4.30;;;2.87;;
69083;SDS011;56185;48.526;9.044;2022-07-18T06:03:50;4.13;;;2.72;;
69083;SDS011;56185;48.526;9.044;2022-07-18T06:06:16;5.60;;;3.10;;
69083;SDS011;56185;48.526;9.044;2022-07-18T06:08:41;3.63;;;2.95;;
69083;SDS011;56185;48.526;9.044;2022-07-18T06:11:07;3.13;;;2.60;;
69083;SDS011;56185;48.526;9.044;2022-07-18T06:13:33;4.78;;;2.90;;
69083;SDS011;56185;48.526;9.044;2022-07-18T06:16:03;4.65;;;2.92;;
69083;SDS011;56185;48.526;9.044;2022-07-18T06:18:29;4.63;;;2.60;;
69083;SDS011;56185;48.526;9.044;2022-07-18T06:20:54;8.35;;;3.15;;
69083;SDS011;56185;48.526;9.044;2022-07-18T06:23:20;3.55;;;2.70;;
69083;SDS011;56185;48.526;9.044;2022-07-18T06:25:45;5.57;;;2.70;;
69083;SDS011;56185;48.526;9.044;2022-07-18T06:28:10;6.25;;;2.70;;
69083;SDS011;56185;48.526;9.044;2022-07-18T06:30:36;6.50;;;2.73;;
69083;SDS011;56185;48.526;9.044;2022-07-18T06:33:01;4.22;;;2.85;;
69083;SDS011;56185;48.526;9.044;2022-07-18T06:35:26;4.03;;;3.37;;
69083;SDS011;56185;48.526;9.044;2022-07-18T06:37:51;6.30;;;2.90;;
69083;SDS011;56185;48.526;9.044;2022-07-18T06:40:17;5.07;;;2.30;;
69083;SDS011;56185;48.526;9.044;2022-07-18T06:42:42;4.15;;;2.78;;
69083;SDS011;56185;48.526;9.044;2022-07-18T06:45:07;4.97;;;2.80;;
69083;SDS011;56185;48.526;9.044;2022-07-18T06:47:33;3.72;;;2.38;;
69083;SDS011;56185;48.526;9.044;2022-07-18T06:49:58;6.80;;;2.70;;
69083;SDS011;56185;48.526;9.044;2022-07-18T06:52:23;12.03;;;3.10;;
69083;SDS011;56185;48.526;9.044;2022-07-18T06:54:49;4.80;;;2.77;;
69083;SDS011;56185;48.526;9.044;2022-07-18T06:57:14;4.93;;;2.65;;
69083;SDS011;56185;48.526;9.044;2022-07-18T06:59:39;5.63;;;2.70;;
69083;SDS011;56185;48.526;9.044;2022-07-18T07:02:04;3.70;;;2.50;;
69083;SDS011;56185;48.526;9.044;2022-07-18T07:04:30;5.43;;;2.57;;
69083;SDS011;56185;48.526;9.044;2022-07-18T07:06:55;3.80;;;2.53;;
69083;SDS011;56185;48.526;9.044;2022-07-18T07:09:20;4.40;;;2.80;;
69083;SDS011;56185;48.526;9.044;2022-07-18T07:11:45;3.83;;;2.60;;
69083;SDS011;56185;48.526;9.044;2022-07-18T07:14:11;3.83;;;2.50;;
69083;SDS011;56185;48.526;9.044;2022-07-18T07:16:36;3.27;;;2.37;;
69083;SDS011;56185;48.526;9.044;2022-07-18T07:19:01;4.53;;;2.60;;
69083;SDS011;56185;48.526;9.044;2022-07-18T07:21:27;4.47;;;2.35;;
69083;SDS011;56185;48.526;9.044;2022-07-18T07:23:52;3.33;;;2.53;;
69083;SDS011;56185;48.526;9.044;2022-07-18T07:26:17;2.70;;;2.13;;
69083;SDS011;56185;48.526;9.044;2022-07-18T07:28:42;5.03;;;2.50;;
69083;SDS011;56185;48.526;9.044;2022-07-18T07:31:08;4.67;;;2.73;;
69083;SDS011;56185;48.526;9.044;2022-07-18T07:33:33;5.65;;;2.15;;
69083;SDS011;56185;48.526;9.044;2022-07-18T07:35:59;3.30;;;2.22;;
69083;SDS011;56185;48.526;9.044;2022-07-18T07:38:25;4.35;;;2.15;;
69083;SDS011;56185;48.526;9.044;2022-07-18T07:40:50;5.82;;;2.30;;
69083;SDS011;56185;48.526;9.044;2022-07-18T07:43:16;4.37;;;1.90;;
69083;SDS011;56185;48.526;9.044;2022-07-18T07:45:41;3.30;;;2.33;;
69083;SDS011;56185;48.526;9.044;2022-07-18T07:48:08;3.50;;;2.15;;
69083;SDS011;56185;48.526;9.044;2022-07-18T07:50:33;5.50;;;2.30;;
69083;SDS011;56185;48.526;9.044;2022-07-18T07:52:59;4.97;;;2.38;;
69083;SDS011;56185;48.526;9.044;2022-07-18T07:55:25;2.85;;;2.20;;
69083;SDS011;56185;48.526;9.044;2022-07-18T07:57:50;3.70;;;2.13;;
69083;SDS011;56185;48.526;9.044;2022-07-18T08:00:16;7.07;;;2.10;;
69083;SDS011;56185;48.526;9.044;2022-07-18T08:02:54;6.63;;;1.98;;
69083;SDS011;56185;48.526;9.044;2022-07-18T08:05:21;4.80;;;2.03;;
69083;SDS011;56185;48.526;9.044;2022-07-18T08:07:47;3.72;;;2.28;;
69083;SDS011;56185;48.526;9.044;2022-07-18T08:10:13;3.22;;;2.00;;
69083;SDS011;56185;48.526;9.044;2022-07-18T08:12:39;3.50;;;2.50;;
69083;SDS011;56185;48.526;9.044;2022-07-18T08:15:04;4.97;;;2.17;;
69083;SDS011;56185;48.526;9.044;2022-07-18T08:17:30;3.53;;;1.92;;
69083;SDS011;56185;48.526;9.044;2022-07-18T08:19:56;5.40;;;2.22;;
69083;SDS011;56185;48.526;9.044;2022-07-18T08:22:21;5.07;;;1.97;;
69083;SDS011;56185;48.526;9.044;2022-07-18T08:24:46;3.03;;;1.98;;
69083;SDS011;56185;48.526;9.044;2022-07-18T08:27:12;3.93;;;2.10;;
69083;SDS011;56185;48.526;9.044;2022-07-18T08:29:37;3.67;;;1.80;;
69083;SDS011;56185;48.526;9.044;2022-07-18T08:32:02;4.03;;;2.17;;
69083;SDS011;56185;48.526;9.044;2022-07-18T08:34:28;5.30;;;1.88;;
69083;SDS011;56185;48.526;9.044;2022-07-18T08:36:53;3.20;;;2.05;;
69083;SDS011;56185;48.526;9.044;2022-07-18T08:39:18;5.13;;;1.90;;
69083;SDS011;56185;48.526;9.044;2022-07-18T08:41:44;3.90;;;2.20;;
69083;SDS011;56185;48.526;9.044;2022-07-18T08:44:09;3.92;;;1.83;;
69083;SDS011;56185;48.526;9.044;2022-07-18T08:46:36;3.83;;;1.80;;
69083;SDS011;56185;48.526;9.044;2022-07-18T08:49:04;3.08;;;1.70;;
69083;SDS011;56185;48.526;9.044;2022-07-18T08:51:30;5.55;;;1.83;;
69083;SDS011;56185;48.526;9.044;2022-07-18T08:53:55;3.00;;;1.92;;
69083;SDS011;56185;48.526;9.044;2022-07-18T08:56:21;3.33;;;2.00;;
69083;SDS011;56185;48.526;9.044;2022-07-18T08:58:46;4.68;;;2.20;;
69083;SDS011;56185;48.526;9.044;2022-07-18T09:01:11;6.72;;;2.00;;
69083;SDS011;56185;48.526;9.044;2022-07-18T09:03:37;5.85;;;1.92;;
69083;SDS011;56185;48.526;9.044;2022-07-18T09:06:03;3.27;;;1.97;;
69083;SDS011;56185;48.526;9.044;2022-07-18T09:08:28;3.47;;;1.98;;
69083;SDS011;56185;48.526;9.044;2022-07-18T09:10:55;7.97;;;2.03;;
69083;SDS011;56185;48.526;9.044;2022-07-18T09:13:23;6.07;;;1.90;;
69083;SDS011;56185;48.526;9.044;2022-07-18T09:16:00;3.92;;;1.80;;
69083;SDS011;56185;48.526;9.044;2022-07-18T09:18:34;3.88;;;1.92;;
69083;SDS011;56185;48.526;9.044;2022-07-18T09:21:11;2.95;;;1.77;;
69083;SDS011;56185;48.526;9.044;2022-07-18T09:23:39;4.88;;;2.15;;
69083;SDS011;56185;48.526;9.044;2022-07-18T09:26:05;5.80;;;2.00;;
69083;SDS011;56185;48.526;9.044;2022-07-18T09:31:16;3.25;;;1.75;;
69083;SDS011;56185;48.526;9.044;2022-07-18T09:33:55;2.38;;;1.70;;
69083;SDS011;56185;48.526;9.044;2022-07-18T09:36:25;3.88;;;1.50;;
69083;SDS011;56185;48.526;9.044;2022-07-18T09:38:51;3.58;;;1.70;;
69083;SDS011;56185;48.526;9.044;2022-07-18T09:41:21;2.60;;;1.40;;
69083;SDS011;56185;48.526;9.044;2022-07-18T09:43:48;2.55;;;1.60;;
69083;SDS011;56185;48.526;9.044;2022-07-18T09:46:13;4.37;;;1.77;;
69083;SDS011;56185;48.526;9.044;2022-07-18T09:48:39;1.93;;;1.30;;
69083;SDS011;56185;48.526;9.044;2022-07-18T09:51:06;3.40;;;1.50;;
69083;SDS011;56185;48.526;9.044;2022-07-18T09:53:33;3.88;;;1.50;;
69083;SDS011;56185;48.526;9.044;2022-07-18T09:56:10;3.35;;;1.65;;
69083;SDS011;56185;48.526;9.044;2022-07-18T09:58:50;2.53;;;1.63;;
69083;SDS011;56185;48.526;9.044;2022-07-18T10:01:17;2.95;;;1.50;;
69083;SDS011;56185;48.526;9.044;2022-07-18T10:03:42;2.15;;;1.58;;
69083;SDS011;56185;48.526;9.044;2022-07-18T10:06:08;2.10;;;1.60;;
69083;SDS011;56185;48.526;9.044;2022-07-18T10:08:35;2.55;;;1.65;;
69083;SDS011;56185;48.526;9.044;2022-07-18T10:11:02;1.90;;;1.40;;
69083;SDS011;56185;48.526;9.044;2022-07-18T10:13:29;2.58;;;1.60;;
69083;SDS011;56185;48.526;9.044;2022-07-18T10:15:55;4.80;;;1.48;;
69083;SDS011;56185;48.526;9.044;2022-07-18T10:18:22;2.00;;;1.60;;
69083;SDS011;56185;48.526;9.044;2022-07-18T10:23:27;3.17;;;1.35;;
69083;SDS011;56185;48.526;9.044;2022-07-18T10:26:06;2.88;;;1.60;;
69083;SDS011;56185;48.526;9.044;2022-07-18T10:28:32;3.05;;;1.50;;
69083;SDS011;56185;48.526;9.044;2022-07-18T10:31:11;2.97;;;1.47;;
69083;SDS011;56185;48.526;9.044;2022-07-18T10:33:39;1.75;;;1.40;;
69083;SDS011;56185;48.526;9.044;2022-07-18T10:36:12;2.10;;;1.50;;
69083;SDS011;56185;48.526;9.044;2022-07-18T10:41:29;2.10;;;1.48;;
69083;SDS011;56185;48.526;9.044;2022-07-18T10:43:54;2.10;;;1.48;;
69083;SDS011;56185;48.526;9.044;2022-07-18T10:46:19;2.20;;;1.60;;
69083;SDS011;56185;48.526;9.044;2022-07-18T10:48:49;1.90;;;1.40;;
69083;SDS011;56185;48.526;9.044;2022-07-18T10:51:16;3.17;;;1.52;;
69083;SDS011;56185;48.526;9.044;2022-07-18T10:58:59;2.50;;;1.40;;
69083;SDS011;56185;48.526;9.044;2022-07-18T11:01:38;2.53;;;1.48;;
69083;SDS011;56185;48.526;9.044;2022-07-18T11:04:22;4.63;;;1.50;;
69083;SDS011;56185;48.526;9.044;2022-07-18T11:06:53;4.47;;;1.38;;
69083;SDS011;56185;48.526;9.044;2022-07-18T11:09:31;2.40;;;1.40;;
69083;SDS011;56185;48.526;9.044;2022-07-18T11:14:58;2.80;;;1.60;;
69083;SDS011;56185;48.526;9.044;2022-07-18T11:22:57;3.70;;;1.30;;
69083;SDS011;56185;48.526;9.044;2022-07-18T11:25:26;2.65;;;1.30;;
69083;SDS011;56185;48.526;9.044;2022-07-18T11:30:43;2.85;;;1.30;;
69083;SDS011;56185;48.526;9.044;2022-07-18T11:33:22;3.20;;;1.30;;
69083;SDS011;56185;48.526;9.044;2022-07-18T11:36:10;2.30;;;1.30;;
69083;SDS011;56185;48.526;9.044;2022-07-18T11:38:38;3.33;;;1.38;;
69083;SDS011;56185;48.526;9.044;2022-07-18T11:41:10;2.95;;;1.42;;
69083;SDS011;56185;48.526;9.044;2022-07-18T11:43:35;2.33;;;1.40;;
69083;SDS011;56185;48.526;9.044;2022-07-18T11:48:30;2.33;;;1.40;;
69083;SDS011;56185;48.526;9.044;2022-07-18T11:50:56;3.17;;;1.38;;
69083;SDS011;56185;48.526;9.044;2022-07-18T11:53:22;3.92;;;1.25;;
69083;SDS011;56185;48.526;9.044;2022-07-18T11:55:47;2.15;;;1.30;;
69083;SDS011;56185;48.526;9.044;2022-07-18T11:58:13;2.33;;;1.30;;
69083;SDS011;56185;48.526;9.044;2022-07-18T12:00:39;2.47;;;1.50;;
69083;SDS011;56185;48.526;9.044;2022-07-18T12:05:38;3.13;;;1.30;;
69083;SDS011;56185;48.526;9.044;2022-07-18T12:11:16;3.22;;;1.20;;
69083;SDS011;56185;48.526;9.044;2022-07-18T12:13:54;1.65;;;1.13;;
69083;SDS011;56185;48.526;9.044;2022-07-18T12:16:28;3.40;;;1.30;;
69083;SDS011;56185;48.526;9.044;2022-07-18T12:19:06;3.00;;;1.27;;
69083;SDS011;56185;48.526;9.044;2022-07-18T12:21:46;4.50;;;1.40;;
69083;SDS011;56185;48.526;9.044;2022-07-18T12:25:07;1.98;;;1.25;;
69083;SDS011;56185;48.526;9.044;2022-07-18T12:32:29;2.50;;;1.20;;
69083;SDS011;56185;48.526;9.044;2022-07-18T12:35:03;2.33;;;1.27;;
69083;SDS011;56185;48.526;9.044;2022-07-18T12:37:29;1.70;;;1.30;;
69083;SDS011;56185;48.526;9.044;2022-07-18T12:39:56;2.13;;;1.30;;
69083;SDS011;56185;48.526;9.044;2022-07-18T12:42:32;3.88;;;1.40;;
69083;SDS011;56185;48.526;9.044;2022-07-18T12:44:59;1.80;;;1.10;;
69083;SDS011;56185;48.526;9.044;2022-07-18T12:47:25;2.08;;;1.48;;
69083;SDS011;56185;48.526;9.044;2022-07-18T12:49:51;7.53;;;1.42;;
69083;SDS011;56185;48.526;9.044;2022-07-18T12:52:17;1.92;;;1.20;;
69083;SDS011;56185;48.526;9.044;2022-07-18T12:54:42;3.70;;;1.25;;
69083;SDS011;56185;48.526;9.044;2022-07-18T12:57:08;3.63;;;1.27;;
69083;SDS011;56185;48.526;9.044;2022-07-18T12:59:33;4.07;;;1.20;;
69083;SDS011;56185;48.526;9.044;2022-07-18T13:01:58;5.87;;;1.70;;
69083;SDS011;56185;48.526;9.044;2022-07-18T13:04:24;2.13;;;1.23;;
69083;SDS011;56185;48.526;9.044;2022-07-18T13:06:49;2.90;;;1.40;;
69083;SDS011;56185;48.526;9.044;2022-07-18T13:09:14;2.93;;;1.30;;
69083;SDS011;56185;48.526;9.044;2022-07-18T13:11:39;4.78;;;1.40;;
69083;SDS011;56185;48.526;9.044;2022-07-18T13:14:08;2.30;;;1.13;;
69083;SDS011;56185;48.526;9.044;2022-07-18T13:16:33;2.30;;;1.30;;
69083;SDS011;56185;48.526;9.044;2022-07-18T13:18:58;1.60;;;1.17;;
69083;SDS011;56185;48.526;9.044;2022-07-18T13:21:26;1.95;;;1.10;;
69083;SDS011;56185;48.526;9.044;2022-07-18T13:23:51;1.47;;;1.03;;
69083;SDS011;56185;48.526;9.044;2022-07-18T13:26:17;4.10;;;1.27;;
69083;SDS011;56185;48.526;9.044;2022-07-18T13:28:42;2.23;;;1.10;;
69083;SDS011;56185;48.526;9.044;2022-07-18T13:31:08;5.40;;;1.20;;
69083;SDS011;56185;48.526;9.044;2022-07-18T13:33:33;3.03;;;1.10;;
69083;SDS011;56185;48.526;9.044;2022-07-18T13:35:58;2.40;;;1.20;;
69083;SDS011;56185;48.526;9.044;2022-07-18T13:38:24;2.50;;;1.10;;
69083;SDS011;56185;48.526;9.044;2022-07-18T13:40:49;4.57;;;1.37;;
69083;SDS011;56185;48.526;9.044;2022-07-18T13:43:14;1.90;;;1.20;;
69083;SDS011;56185;48.526;9.044;2022-07-18T13:45:39;3.23;;;1.30;;
69083;SDS011;56185;48.526;9.044;2022-07-18T13:48:05;2.43;;;1.10;;
69083;SDS011;56185;48.526;9.044;2022-07-18T13:50:30;1.52;;;0.93;;
69083;SDS011;56185;48.526;9.044;2022-07-18T13:52:55;3.97;;;1.10;;
69083;SDS011;56185;48.526;9.044;2022-07-18T13:55:21;2.35;;;1.00;;
69083;SDS011;56185;48.526;9.044;2022-07-18T13:57:47;2.47;;;1.00;;
69083;SDS011;56185;48.526;9.044;2022-07-18T14:00:12;2.47;;;1.00;;
69083;SDS011;56185;48.526;9.044;2022-07-18T14:02:38;4.05;;;1.08;;
69083;SDS011;56185;48.526;9.044;2022-07-18T14:05:03;1.20;;;0.80;;
69083;SDS011;56185;48.526;9.044;2022-07-18T14:07:29;2.00;;;1.00;;
69083;SDS011;56185;48.526;9.044;2022-07-18T14:09:54;2.07;;;0.90;;
69083;SDS011;56185;48.526;9.044;2022-07-18T14:12:19;2.23;;;1.10;;
69083;SDS011;56185;48.526;9.044;2022-07-18T14:14:45;2.90;;;1.20;;
69083;SDS011;56185;48.526;9.044;2022-07-18T14:17:10;4.17;;;1.10;;
69083;SDS011;56185;48.526;9.044;2022-07-18T14:19:35;2.60;;;1.00;;
69083;SDS011;56185;48.526;9.044;2022-07-18T14:22:00;1.63;;;0.90;;
69083;SDS011;56185;48.526;9.044;2022-07-18T14:24:26;3.57;;;1.03;;
69083;SDS011;56185;48.526;9.044;2022-07-18T14:26:51;1.90;;;1.10;;
69083;SDS011;56185;48.526;9.044;2022-07-18T14:29:16;1.47;;;0.90;;
69083;SDS011;56185;48.526;9.044;2022-07-18T14:31:41;2.37;;;1.20;;
69083;SDS011;56185;48.526;9.044;2022-07-18T14:34:07;1.83;;;1.20;;
69083;SDS011;56185;48.526;9.044;2022-07-18T14:36:32;3.93;;;1.03;;
69083;SDS011;56185;48.526;9.044;2022-07-18T14:38:57;3.47;;;1.33;;
69083;SDS011;56185;48.526;9.044;2022-07-18T14:41:22;2.30;;;1.40;;
69083;SDS011;56185;48.526;9.044;2022-07-18T14:43:48;3.23;;;1.47;;
69083;SDS011;56185;48.526;9.044;2022-07-18T14:46:13;2.60;;;1.35;;
69083;SDS011;56185;48.526;9.044;2022-07-18T14:48:38;2.30;;;1.20;;
69083;SDS011;56185;48.526;9.044;2022-07-18T14:51:03;1.83;;;1.10;;
69083;SDS011;56185;48.526;9.044;2022-07-18T14:53:29;3.77;;;1.33;;
69083;SDS011;56185;48.526;9.044;2022-07-18T14:55:54;2.90;;;1.33;;
69083;SDS011;56185;48.526;9.044;2022-07-18T14:58:20;2.78;;;1.40;;
69083;SDS011;56185;48.526;9.044;2022-07-18T15:00:45;1.87;;;1.30;;
69083;SDS011;56185;48.526;9.044;2022-07-18T15:03:10;3.00;;;1.40;;
69083;SDS011;56185;48.526;9.044;2022-07-18T15:05:35;2.03;;;1.30;;
69083;SDS011;56185;48.526;9.044;2022-07-18T15:08:01;3.30;;;1.30;;
69083;SDS011;56185;48.526;9.044;2022-07-18T15:10:26;5.43;;;1.47;;
69083;SDS011;56185;48.526;9.044;2022-07-18T15:12:51;4.00;;;1.37;;
69083;SDS011;56185;48.526;9.044;2022-07-18T15:15:16;2.57;;;1.40;;
69083;SDS011;56185;48.526;9.044;2022-07-18T15:17:42;2.57;;;1.20;;
69083;SDS011;56185;48.526;9.044;2022-07-18T15:20:07;2.27;;;1.30;;
69083;SDS011;56185;48.526;9.044;2022-07-18T15:22:33;2.53;;;1.20;;
69083;SDS011;56185;48.526;9.044;2022-07-18T15:24:58;3.55;;;1.25;;